Nohic — FAB5240 — position and weather

sailwx.info

Track history (hours):
 
Tides and Currents Weather Stations Pressure Air Temp Water Temp Dewpoint Dewpoint Depression Visibility Wind Speed Wind Dir Waves Ship Positions

Nohic

Last reported at 2018-Jun-20 12:08 UTC. Time now 2018-Jun-21 16:25 UTC.
Position N 47°39' W 003°12'.

Length 12 m; draft 2 m.

Type: High speed craft. MMSI: 227211130.

Date/timePositionNaut miles runAvg speedWind from/ knotsBaromVisibWave heightAir tempDewpointWater temp
2018-Jun-20 12:08N 47°39' W 003°12'0 0.1
2018-Jun-20 12:00N 47°39' W 003°12'2 3.4
2018-Jun-20 11:30N 47°38' W 003°14'3 5.8
2018-Jun-20 11:01N 47°38' W 003°19'4 0.1
2018-Jun-18 09:42N 47°39' W 003°12'1 3.4
2018-Jun-18 09:30N 47°39' W 003°13'714.6
2018-Jun-18 09:01N 47°42' W 003°22'2 3.0
2018-Jun-18 08:31N 47°44' W 003°22'3 6.4
2018-Jun-18 08:01N 47°40' W 003°22'612.3
2018-Jun-18 07:30N 47°39' W 003°13'0 0.5
2018-Jun-18 07:00N 47°39' W 003°12'0 0.0
2018-Jun-17 16:25N 47°39' W 003°12'512.5
2018-Jun-17 16:01N 47°35' W 003°10'1 2.2
2018-Jun-17 15:30N 47°33' W 003°10'2 3.8
2018-Jun-17 15:01N 47°35' W 003°11'611.5
2018-Jun-17 14:31N 47°41' W 003°12'2 3.2
2018-Jun-17 14:01N 47°39' W 003°13'0 0.2
2018-Jun-17 13:31N 47°39' W 003°12'0 0.0
2018-Jun-17 08:13N 47°39' W 003°12'1 2.5
2018-Jun-17 08:00N 47°39' W 003°13'1 1.0
2018-Jun-17 07:30N 47°39' W 003°12'0 0.0
2018-Jun-16 14:20N 47°39' W 003°12'0 0.2
2018-Jun-16 14:00N 47°39' W 003°12'0 0.0
2018-Jun-16 07:33N 47°39' W 003°12'0 0.1
2018-Jun-16 07:30N 47°39' W 003°12'1 2.2
2018-Jun-16 07:00N 47°38' W 003°13'1 2.2
2018-Jun-16 06:31N 47°39' W 003°12'0 0.0
2018-Jun-15 15:32N 47°39' W 003°12'0 0.0
2018-Jun-15 15:30N 47°39' W 003°12'1 2.9
2018-Jun-15 15:00N 47°38' W 003°13'0 0.6
2018-Jun-15 14:30N 47°38' W 003°13'  
Track history (hours):
 
Tides and Currents Weather Stations Pressure Air Temp Water Temp Dewpoint Dewpoint Depression Visibility Wind Speed Wind Dir Waves Ship Positions

Nohic

Last reported at 2018-Jun-20 12:08 UTC. Time now 2018-Jun-21 16:25 UTC.
Position N 47°39' W 003°12'.

Length 12 m; draft 2 m.

Type: High speed craft. MMSI: 227211130.

Date/timePositionNaut miles runAvg speedWind from/ knotsBaromVisibWave heightAir tempDewpointWater temp
2018-Jun-20 12:08N 47°39' W 003°12'0 0.1
2018-Jun-20 12:00N 47°39' W 003°12'2 3.4
2018-Jun-20 11:30N 47°38' W 003°14'3 5.8
2018-Jun-20 11:01N 47°38' W 003°19'4 0.1
2018-Jun-18 09:42N 47°39' W 003°12'1 3.4
2018-Jun-18 09:30N 47°39' W 003°13'714.6
2018-Jun-18 09:01N 47°42' W 003°22'2 3.0
2018-Jun-18 08:31N 47°44' W 003°22'3 6.4
2018-Jun-18 08:01N 47°40' W 003°22'612.3
2018-Jun-18 07:30N 47°39' W 003°13'0 0.5
2018-Jun-18 07:00N 47°39' W 003°12'0 0.0
2018-Jun-17 16:25N 47°39' W 003°12'512.5
2018-Jun-17 16:01N 47°35' W 003°10'1 2.2
2018-Jun-17 15:30N 47°33' W 003°10'2 3.8
2018-Jun-17 15:01N 47°35' W 003°11'611.5
2018-Jun-17 14:31N 47°41' W 003°12'2 3.2
2018-Jun-17 14:01N 47°39' W 003°13'0 0.2
2018-Jun-17 13:31N 47°39' W 003°12'0 0.0
2018-Jun-17 08:13N 47°39' W 003°12'1 2.5
2018-Jun-17 08:00N 47°39' W 003°13'1 1.0
2018-Jun-17 07:30N 47°39' W 003°12'0 0.0
2018-Jun-16 14:20N 47°39' W 003°12'0 0.2
2018-Jun-16 14:00N 47°39' W 003°12'0 0.0
2018-Jun-16 07:33N 47°39' W 003°12'0 0.1
2018-Jun-16 07:30N 47°39' W 003°12'1 2.2
2018-Jun-16 07:00N 47°38' W 003°13'1 2.2
2018-Jun-16 06:31N 47°39' W 003°12'0 0.0
2018-Jun-15 15:32N 47°39' W 003°12'0 0.0
2018-Jun-15 15:30N 47°39' W 003°12'1 2.9
2018-Jun-15 15:00N 47°38' W 003°13'0 0.6
2018-Jun-15 14:30N 47°38' W 003°13'  

Dump ship's entire track history